createdAt,value
2023-03-08T00:01:46.038Z,11.33
2023-03-08T00:04:12.478Z,11.28
2023-03-08T00:06:38.837Z,11.27
2023-03-08T00:09:05.198Z,11.32
2023-03-08T00:11:31.546Z,11.31
2023-03-08T00:13:57.905Z,11.30
2023-03-08T00:16:24.374Z,11.34
2023-03-08T00:18:50.615Z,11.25
2023-03-08T00:21:16.968Z,11.18
2023-03-08T00:23:43.286Z,11.09
2023-03-08T00:26:09.716Z,11.05
2023-03-08T00:28:36.055Z,11.02
2023-03-08T00:31:02.473Z,10.98
2023-03-08T00:33:28.790Z,11.00
2023-03-08T00:35:55.139Z,10.98
2023-03-08T00:38:21.537Z,10.96
2023-03-08T00:40:47.920Z,10.91
2023-03-08T00:43:14.279Z,10.87
2023-03-08T00:45:40.634Z,10.85
2023-03-08T00:48:06.963Z,10.84
2023-03-08T00:50:33.645Z,10.84
2023-03-08T00:53:00.002Z,10.81
2023-03-08T00:55:26.335Z,10.78
2023-03-08T00:57:52.693Z,10.68
2023-03-08T01:00:19.075Z,10.57
2023-03-08T01:02:45.432Z,10.48
2023-03-08T01:05:11.804Z,10.40
2023-03-08T01:07:38.156Z,10.33
2023-03-08T01:10:04.501Z,10.29
2023-03-08T01:12:30.875Z,10.24
2023-03-08T01:14:57.197Z,10.21
2023-03-08T01:17:23.592Z,10.16
2023-03-08T01:19:49.940Z,10.13
2023-03-08T01:22:16.279Z,10.11
2023-03-08T01:24:42.638Z,10.07
2023-03-08T01:27:08.977Z,10.04
2023-03-08T01:29:35.378Z,10.03
2023-03-08T01:32:01.766Z,10.03
2023-03-08T01:34:28.089Z,10.03
2023-03-08T01:36:54.475Z,10.02
2023-03-08T01:39:20.843Z,10.00
2023-03-08T01:41:47.199Z,10.00
2023-03-08T01:44:13.591Z,9.99
2023-03-08T01:46:39.966Z,9.99
2023-03-08T01:49:06.323Z,9.97
2023-03-08T01:51:32.733Z,9.96
2023-03-08T01:53:59.042Z,9.94
2023-03-08T01:56:25.392Z,9.93
2023-03-08T01:58:51.759Z,9.93
2023-03-08T02:01:18.258Z,9.92
2023-03-08T02:03:44.555Z,9.92
2023-03-08T02:06:11.003Z,9.92
2023-03-08T02:08:37.391Z,9.92
2023-03-08T02:11:03.733Z,9.91
2023-03-08T02:13:30.072Z,9.91
2023-03-08T02:15:56.418Z,9.90
2023-03-08T02:18:22.791Z,9.90
2023-03-08T02:20:49.170Z,9.89
2023-03-08T02:23:15.521Z,9.88
2023-03-08T02:25:41.903Z,9.88
2023-03-08T02:28:08.282Z,9.88
2023-03-08T02:30:34.643Z,9.87
2023-03-08T02:33:01.079Z,9.84
2023-03-08T02:35:27.458Z,9.85
2023-03-08T02:37:53.772Z,9.84
2023-03-08T02:40:20.160Z,9.84
2023-03-08T02:42:46.541Z,9.83
2023-03-08T02:45:12.886Z,9.83
2023-03-08T02:47:39.206Z,9.82
2023-03-08T02:50:05.595Z,9.79
2023-03-08T02:52:31.945Z,9.79
2023-03-08T02:54:58.315Z,9.78
2023-03-08T02:57:25.036Z,9.76
2023-03-08T02:59:51.375Z,9.76
2023-03-08T03:02:17.741Z,9.75
2023-03-08T03:04:44.079Z,9.74
2023-03-08T03:07:10.438Z,9.74
2023-03-08T03:09:36.816Z,9.72
2023-03-08T03:12:03.203Z,9.71
2023-03-08T03:14:29.604Z,9.71
2023-03-08T03:16:55.910Z,9.70
2023-03-08T03:19:22.326Z,9.68
2023-03-08T03:21:48.642Z,9.69
2023-03-08T03:24:15.019Z,9.68
2023-03-08T03:26:41.345Z,9.68
2023-03-08T03:29:07.750Z,9.68
2023-03-08T03:31:34.072Z,9.68
2023-03-08T03:34:00.446Z,9.66
2023-03-08T03:36:26.795Z,9.67
2023-03-08T03:38:53.225Z,9.65
2023-03-08T03:41:19.581Z,9.64
2023-03-08T03:43:45.915Z,9.65
2023-03-08T03:46:12.358Z,9.63
2023-03-08T03:48:38.742Z,9.61
2023-03-08T03:51:05.114Z,9.61
2023-03-08T03:53:31.488Z,9.62
2023-03-08T03:55:57.880Z,9.61
2023-03-08T03:58:24.216Z,9.60
2023-03-08T04:00:50.540Z,9.58
2023-03-08T04:03:17.083Z,9.58
2023-03-08T04:05:43.294Z,9.58
2023-03-08T04:08:09.649Z,9.58
2023-03-08T04:10:35.976Z,9.57
2023-03-08T04:13:02.373Z,9.57
2023-03-08T04:15:28.683Z,9.56
2023-03-08T04:17:55.058Z,9.54
2023-03-08T04:20:21.415Z,9.55
2023-03-08T04:22:47.806Z,9.54
2023-03-08T04:25:14.132Z,9.53
2023-03-08T04:27:40.514Z,9.52
2023-03-08T04:30:06.835Z,9.52
2023-03-08T04:32:33.259Z,9.50
2023-03-08T04:34:59.544Z,9.51
2023-03-08T04:37:25.888Z,9.50
2023-03-08T04:39:52.226Z,9.50
2023-03-08T04:42:18.576Z,9.51
2023-03-08T04:44:44.919Z,9.52
2023-03-08T04:47:11.289Z,9.52
2023-03-08T04:49:37.665Z,9.54
2023-03-08T04:52:04.053Z,9.55
2023-03-08T04:54:30.380Z,9.58
2023-03-08T04:56:56.749Z,9.59
2023-03-08T04:59:23.099Z,9.61
2023-03-08T05:01:49.528Z,9.63
2023-03-08T05:04:15.799Z,9.69
2023-03-08T05:06:42.186Z,9.76
2023-03-08T05:09:08.547Z,9.86
2023-03-08T05:11:34.962Z,9.99
2023-03-08T05:14:01.305Z,10.12
2023-03-08T05:16:27.672Z,10.27
2023-03-08T05:18:54.029Z,10.44
2023-03-08T05:21:20.419Z,10.64
2023-03-08T05:23:46.781Z,10.86
2023-03-08T05:26:13.120Z,11.06
2023-03-08T05:28:39.483Z,11.27
2023-03-08T05:31:05.827Z,11.44
2023-03-08T05:33:32.148Z,11.57
2023-03-08T05:35:58.613Z,11.66
2023-03-08T05:38:24.919Z,11.70
2023-03-08T05:40:51.380Z,11.70
2023-03-08T05:43:17.700Z,11.61
2023-03-08T05:45:44.182Z,11.51
2023-03-08T05:48:10.463Z,11.43
2023-03-08T05:50:37.012Z,11.19
2023-03-08T05:53:03.371Z,10.89
2023-03-08T05:55:29.780Z,10.70
2023-03-08T05:57:56.156Z,10.65
2023-03-08T06:00:22.521Z,10.61
2023-03-08T06:02:51.442Z,10.58
2023-03-08T06:05:17.704Z,10.59
2023-03-08T06:07:44.049Z,10.63
2023-03-08T06:10:10.417Z,10.72
2023-03-08T06:12:36.784Z,10.80
2023-03-08T06:15:03.174Z,10.77
2023-03-08T06:17:29.537Z,10.76
2023-03-08T06:19:55.978Z,10.73
2023-03-08T06:22:22.379Z,10.71
2023-03-08T06:24:48.797Z,10.77
2023-03-08T06:27:15.152Z,10.87
2023-03-08T06:29:41.505Z,11.12
2023-03-08T06:32:07.872Z,11.35
2023-03-08T06:34:34.175Z,11.58
2023-03-08T06:37:00.498Z,11.77
2023-03-08T06:39:26.867Z,11.95
2023-03-08T06:41:53.347Z,12.20
2023-03-08T06:44:19.705Z,12.43
2023-03-08T06:46:46.139Z,12.57
2023-03-08T06:49:12.481Z,12.70
2023-03-08T06:51:38.827Z,12.97
2023-03-08T06:54:05.256Z,13.14
2023-03-08T06:56:31.630Z,13.21
2023-03-08T06:58:57.947Z,13.42
2023-03-08T07:01:24.327Z,13.59
2023-03-08T07:03:50.745Z,13.85
2023-03-08T07:06:17.069Z,14.15
2023-03-08T07:08:43.857Z,14.40
2023-03-08T07:11:10.248Z,14.62
2023-03-08T07:13:36.631Z,14.74
2023-03-08T07:16:02.963Z,14.83
2023-03-08T07:18:29.293Z,14.99
2023-03-08T07:20:55.674Z,15.27
2023-03-08T07:23:22.075Z,15.49
2023-03-08T07:25:55.852Z,15.52
2023-03-08T07:28:22.261Z,15.56
2023-03-08T07:30:48.565Z,15.55
2023-03-08T07:33:14.975Z,15.43
2023-03-08T07:35:41.397Z,15.43
2023-03-08T07:38:07.731Z,15.43
2023-03-08T07:40:34.118Z,15.41
2023-03-08T07:43:00.506Z,15.32
2023-03-08T07:45:26.850Z,15.20
2023-03-08T07:47:53.211Z,15.16
2023-03-08T07:50:19.567Z,15.16
2023-03-08T07:52:45.963Z,15.21
2023-03-08T07:55:13.458Z,15.29
2023-03-08T07:57:39.881Z,15.38
2023-03-08T08:00:06.201Z,15.37
2023-03-08T08:02:32.603Z,15.35
2023-03-08T08:04:59.058Z,15.40
2023-03-08T08:07:26.430Z,15.44
2023-03-08T08:09:52.814Z,15.45
2023-03-08T08:12:19.277Z,15.44
2023-03-08T08:14:45.600Z,15.51
2023-03-08T08:17:11.971Z,15.51
2023-03-08T08:19:38.283Z,15.50
2023-03-08T08:22:04.741Z,15.49
2023-03-08T08:24:31.070Z,15.55
2023-03-08T08:26:57.411Z,15.72
2023-03-08T08:29:23.785Z,15.90
2023-03-08T08:31:50.250Z,16.10
2023-03-08T08:34:16.690Z,16.45
2023-03-08T08:36:43.062Z,16.80
2023-03-08T08:39:09.403Z,17.11
2023-03-08T08:41:35.808Z,17.51
2023-03-08T08:44:02.133Z,17.98
2023-03-08T08:46:28.543Z,18.35
2023-03-08T08:48:54.893Z,18.67
2023-03-08T08:51:21.252Z,19.03
2023-03-08T08:53:47.616Z,19.08
2023-03-08T08:56:25.686Z,19.08
2023-03-08T08:58:40.391Z,18.91
2023-03-08T09:01:09.177Z,18.83
2023-03-08T09:03:33.256Z,18.80
2023-03-08T09:05:59.706Z,18.70
2023-03-08T09:08:26.083Z,18.58
2023-03-08T09:10:52.431Z,18.48
2023-03-08T09:13:18.871Z,18.32
2023-03-08T09:15:45.141Z,18.15
2023-03-08T09:18:11.715Z,18.02
2023-03-08T09:20:38.092Z,17.96
2023-03-08T09:23:04.571Z,17.91
2023-03-08T09:25:30.952Z,17.92
2023-03-08T09:27:57.267Z,17.90
2023-03-08T09:30:23.632Z,17.79
2023-03-08T09:32:50.020Z,17.76
2023-03-08T09:35:16.328Z,17.86
2023-03-08T09:37:42.652Z,18.04
2023-03-08T09:40:09.006Z,18.30
2023-03-08T09:42:35.350Z,18.58
2023-03-08T09:45:01.731Z,18.89
2023-03-08T09:47:28.076Z,19.22
2023-03-08T09:49:54.431Z,19.56
2023-03-08T09:52:20.880Z,20.00
2023-03-08T09:54:47.415Z,20.41
2023-03-08T09:57:13.746Z,20.91
2023-03-08T09:59:40.100Z,21.38
2023-03-08T10:02:06.476Z,21.75
2023-03-08T10:04:32.925Z,21.97
2023-03-08T10:06:59.228Z,22.16
2023-03-08T10:09:25.604Z,22.38
2023-03-08T10:11:51.972Z,22.53
2023-03-08T10:14:20.690Z,22.72
2023-03-08T10:16:47.076Z,23.03
2023-03-08T10:19:13.385Z,23.37
2023-03-08T10:21:39.780Z,23.55
2023-03-08T10:24:06.117Z,23.72
2023-03-08T10:26:32.446Z,23.85
2023-03-08T10:28:58.799Z,23.97
2023-03-08T10:31:25.154Z,23.99
2023-03-08T10:33:51.511Z,24.03
2023-03-08T10:36:17.883Z,24.18
2023-03-08T10:38:44.229Z,24.14
2023-03-08T10:41:10.615Z,24.02
2023-03-08T10:43:37.001Z,23.81
2023-03-08T10:46:03.398Z,23.61
2023-03-08T10:48:29.743Z,23.44
2023-03-08T10:50:56.106Z,23.37
2023-03-08T10:53:22.477Z,23.30
2023-03-08T10:55:48.846Z,23.25
2023-03-08T10:58:15.226Z,23.30
2023-03-08T11:00:41.537Z,23.31
2023-03-08T11:03:07.918Z,23.24
2023-03-08T11:05:34.235Z,23.14
2023-03-08T11:08:00.609Z,22.97
2023-03-08T11:10:27.007Z,22.73
2023-03-08T11:12:53.377Z,22.59
2023-03-08T11:15:20.828Z,22.49
2023-03-08T11:17:47.188Z,22.45
2023-03-08T11:20:13.630Z,22.39
2023-03-08T11:22:39.988Z,22.39
2023-03-08T11:25:06.404Z,22.41
2023-03-08T11:27:32.815Z,22.44
2023-03-08T11:30:00.327Z,22.65
2023-03-08T11:32:26.858Z,22.94
2023-03-08T11:34:53.136Z,23.24
2023-03-08T11:37:19.462Z,23.62
2023-03-08T11:39:45.801Z,23.97
2023-03-08T11:42:12.549Z,24.24
2023-03-08T11:44:38.504Z,24.31
2023-03-08T11:47:04.870Z,24.23
2023-03-08T11:49:31.264Z,24.22
2023-03-08T11:51:57.666Z,24.16
2023-03-08T11:54:24.092Z,24.26
2023-03-08T11:56:50.418Z,24.38
2023-03-08T11:59:16.812Z,24.52
2023-03-08T12:01:43.191Z,24.60
2023-03-08T12:04:09.649Z,24.59
2023-03-08T12:06:35.959Z,24.51
2023-03-08T12:09:02.257Z,24.28
2023-03-08T12:11:28.616Z,24.10
2023-03-08T12:13:54.943Z,24.06
2023-03-08T12:16:21.441Z,24.24
2023-03-08T12:18:47.689Z,24.44
2023-03-08T12:21:14.008Z,24.58
2023-03-08T12:23:40.385Z,24.66
2023-03-08T12:26:06.795Z,24.63
2023-03-08T12:28:33.176Z,24.44
2023-03-08T12:30:59.583Z,24.19
2023-03-08T12:33:26.134Z,24.00
2023-03-08T12:35:52.467Z,23.78
2023-03-08T12:38:18.825Z,23.61
2023-03-08T12:40:45.134Z,23.43
2023-03-08T12:43:11.448Z,23.25
2023-03-08T12:45:37.882Z,23.04
2023-03-08T12:48:04.270Z,22.85
2023-03-08T12:50:30.657Z,22.79
2023-03-08T12:52:56.977Z,22.81
2023-03-08T12:55:23.297Z,22.75
2023-03-08T12:57:49.697Z,22.67
2023-03-08T13:00:16.071Z,22.50
2023-03-08T13:02:42.426Z,22.30
2023-03-08T13:05:09.970Z,22.18
2023-03-08T13:07:36.311Z,22.10
2023-03-08T13:10:02.675Z,22.13
2023-03-08T13:12:29.027Z,22.26
2023-03-08T13:14:55.379Z,22.45
2023-03-08T13:17:21.723Z,22.64
2023-03-08T13:19:48.130Z,22.78
2023-03-08T13:22:14.573Z,22.80
2023-03-08T13:24:40.841Z,22.80
2023-03-08T13:27:07.225Z,22.76
2023-03-08T13:29:33.784Z,22.70
2023-03-08T13:32:00.100Z,22.63
2023-03-08T13:34:26.477Z,22.61
2023-03-08T13:36:52.844Z,22.59
2023-03-08T13:39:19.178Z,22.59
2023-03-08T13:41:45.552Z,22.55
2023-03-08T13:44:11.920Z,22.47
2023-03-08T13:46:38.289Z,22.38
2023-03-08T13:49:04.692Z,22.27
2023-03-08T13:51:31.008Z,22.19
2023-03-08T13:53:57.341Z,22.12
2023-03-08T13:56:23.807Z,22.09
2023-03-08T13:58:50.082Z,22.02
2023-03-08T14:01:16.512Z,21.91
2023-03-08T14:03:42.931Z,21.82
2023-03-08T14:06:09.373Z,21.71
2023-03-08T14:08:35.636Z,21.61
2023-03-08T14:11:02.080Z,21.54
2023-03-08T14:13:28.369Z,21.49
2023-03-08T14:15:54.769Z,21.45
2023-03-08T14:18:21.161Z,21.35
2023-03-08T14:20:47.622Z,21.26
2023-03-08T14:23:15.361Z,21.15
2023-03-08T14:25:40.389Z,21.05
2023-03-08T14:28:06.810Z,20.98
2023-03-08T14:30:33.189Z,20.90
2023-03-08T14:32:59.634Z,20.84
2023-03-08T14:35:25.967Z,20.78
2023-03-08T14:37:52.290Z,20.72
2023-03-08T14:40:18.673Z,20.65
2023-03-08T14:42:45.001Z,20.55
2023-03-08T14:45:11.409Z,20.47
2023-03-08T14:47:37.766Z,20.36
2023-03-08T14:50:04.156Z,20.29
2023-03-08T14:52:30.489Z,20.21
2023-03-08T14:54:56.902Z,20.16
2023-03-08T14:57:23.318Z,20.12
2023-03-08T14:59:49.698Z,20.05
2023-03-08T15:02:16.079Z,19.97
2023-03-08T15:04:42.428Z,19.89
2023-03-08T15:07:09.337Z,19.79
2023-03-08T15:09:35.751Z,19.71
2023-03-08T15:12:02.127Z,19.63
2023-03-08T15:14:28.464Z,19.57
2023-03-08T15:16:54.804Z,19.49
2023-03-08T15:19:21.157Z,19.39
2023-03-08T15:21:47.700Z,19.33
2023-03-08T15:24:14.102Z,19.27
2023-03-08T15:26:40.498Z,19.22
2023-03-08T15:29:06.841Z,19.18
2023-03-08T15:31:33.255Z,19.12
2023-03-08T15:34:00.554Z,19.07
2023-03-08T15:36:25.971Z,19.01
2023-03-08T15:38:52.361Z,18.93
2023-03-08T15:41:18.724Z,18.89
2023-03-08T15:43:45.076Z,18.86
2023-03-08T15:46:11.487Z,18.82
2023-03-08T15:48:37.840Z,18.78
2023-03-08T15:51:04.167Z,18.72
2023-03-08T15:53:35.729Z,18.65
2023-03-08T15:55:56.939Z,18.60
2023-03-08T15:58:23.310Z,18.57
2023-03-08T16:00:49.697Z,18.55
2023-03-08T16:03:16.088Z,18.52
2023-03-08T16:05:42.404Z,18.49
2023-03-08T16:08:08.808Z,18.56
2023-03-08T16:10:35.193Z,18.56
2023-03-08T16:13:01.585Z,18.52
2023-03-08T16:15:27.907Z,18.42
2023-03-08T16:17:54.566Z,18.36
2023-03-08T16:20:20.936Z,18.30
2023-03-08T16:22:47.286Z,18.25
2023-03-08T16:25:13.727Z,18.17
2023-03-08T16:27:40.081Z,18.10
2023-03-08T16:30:06.465Z,18.05
2023-03-08T16:32:32.915Z,18.02
2023-03-08T16:34:59.190Z,17.96
2023-03-08T16:37:25.961Z,17.91
2023-03-08T16:39:52.327Z,17.86
2023-03-08T16:42:18.673Z,17.76
2023-03-08T16:44:45.098Z,17.69
2023-03-08T16:47:11.499Z,17.66
2023-03-08T16:49:37.804Z,17.62
2023-03-08T16:52:04.159Z,17.52
2023-03-08T16:54:30.526Z,17.40
2023-03-08T16:57:04.832Z,17.31
2023-03-08T16:59:25.452Z,17.23
2023-03-08T17:01:51.855Z,17.16
2023-03-08T17:04:18.198Z,17.08
2023-03-08T17:06:44.626Z,17.02
2023-03-08T17:09:11.964Z,16.97
2023-03-08T17:11:37.342Z,16.92
2023-03-08T17:14:03.703Z,16.89
2023-03-08T17:16:30.136Z,16.85
2023-03-08T17:18:56.495Z,16.81
2023-03-08T17:21:22.893Z,16.77
2023-03-08T17:23:49.278Z,16.73
2023-03-08T17:26:16.814Z,16.69
2023-03-08T17:28:43.310Z,16.66
2023-03-08T17:31:09.704Z,16.62
2023-03-08T17:33:36.072Z,16.57
2023-03-08T17:36:02.566Z,16.53
2023-03-08T17:38:28.788Z,16.49
2023-03-08T17:40:55.223Z,16.57
2023-03-08T17:43:21.539Z,16.62
2023-03-08T17:45:47.970Z,16.64
2023-03-08T17:48:14.353Z,16.60
2023-03-08T17:50:40.723Z,16.54
2023-03-08T17:53:07.043Z,16.46
2023-03-08T17:55:33.397Z,16.39
2023-03-08T17:57:59.795Z,16.30
2023-03-08T18:00:27.636Z,16.26
2023-03-08T18:02:53.957Z,16.24
2023-03-08T18:05:20.306Z,16.21
2023-03-08T18:07:49.293Z,16.18
2023-03-08T18:10:15.681Z,16.15
2023-03-08T18:12:42.009Z,16.14
2023-03-08T18:15:08.394Z,16.11
2023-03-08T18:17:34.818Z,16.06
2023-03-08T18:20:01.166Z,16.01
2023-03-08T18:22:27.495Z,15.95
2023-03-08T18:24:53.898Z,15.93
2023-03-08T18:27:20.499Z,15.90
2023-03-08T18:29:46.908Z,15.87
2023-03-08T18:32:13.325Z,15.82
2023-03-08T18:34:39.651Z,15.77
2023-03-08T18:37:06.047Z,15.73
2023-03-08T18:39:32.450Z,15.69
2023-03-08T18:41:58.768Z,15.68
2023-03-08T18:44:25.442Z,15.68
2023-03-08T18:46:51.962Z,15.64
2023-03-08T18:49:18.322Z,15.61
2023-03-08T18:51:44.835Z,15.58
2023-03-08T18:54:11.388Z,15.53
2023-03-08T18:56:37.774Z,15.53
2023-03-08T18:59:04.110Z,15.58
2023-03-08T19:01:30.536Z,15.55
2023-03-08T19:03:56.918Z,15.49
2023-03-08T19:06:23.313Z,15.44
2023-03-08T19:08:49.753Z,15.40
2023-03-08T19:11:16.364Z,15.37
2023-03-08T19:13:43.792Z,15.34
2023-03-08T19:16:10.125Z,15.32
2023-03-08T19:18:40.447Z,15.28
2023-03-08T19:21:09.508Z,15.26
2023-03-08T19:23:35.990Z,15.24
2023-03-08T19:26:02.369Z,15.21
2023-03-08T19:28:28.712Z,15.18
2023-03-08T19:30:55.313Z,15.15
2023-03-08T19:33:31.304Z,15.11
2023-03-08T19:35:48.072Z,15.08
2023-03-08T19:38:14.485Z,15.05
2023-03-08T19:40:40.818Z,15.02
2023-03-08T19:43:07.231Z,14.99
2023-03-08T19:45:33.767Z,14.98
2023-03-08T19:48:00.127Z,14.95
2023-03-08T19:50:26.446Z,14.93
2023-03-08T19:52:52.815Z,14.89
2023-03-08T19:55:19.285Z,14.85
2023-03-08T19:57:46.740Z,14.82
2023-03-08T20:00:13.056Z,14.79
2023-03-08T20:02:39.475Z,14.75
2023-03-08T20:05:05.831Z,14.71
2023-03-08T20:07:32.384Z,14.69
2023-03-08T20:10:07.352Z,14.64
2023-03-08T20:12:25.176Z,14.60
2023-03-08T20:14:51.506Z,14.56
2023-03-08T20:17:17.922Z,14.52
2023-03-08T20:19:45.290Z,14.49
2023-03-08T20:22:11.708Z,14.44
2023-03-08T20:24:38.113Z,14.42
2023-03-08T20:27:05.573Z,14.39
2023-03-08T20:29:31.903Z,14.34
2023-03-08T20:31:58.444Z,14.32
2023-03-08T20:34:24.816Z,14.30
2023-03-08T20:36:53.291Z,14.27
2023-03-08T20:39:19.617Z,14.22
2023-03-08T20:41:46.097Z,14.20
2023-03-08T20:44:12.582Z,14.16
2023-03-08T20:46:38.927Z,14.13
2023-03-08T20:49:05.253Z,14.11
2023-03-08T20:51:31.649Z,14.08
2023-03-08T20:53:58.104Z,14.06
2023-03-08T20:56:26.739Z,14.02
2023-03-08T20:58:53.128Z,13.99
2023-03-08T21:01:19.556Z,13.96
2023-03-08T21:03:45.909Z,13.93
2023-03-08T21:06:12.307Z,13.96
2023-03-08T21:08:38.646Z,13.92
2023-03-08T21:11:05.061Z,13.88
2023-03-08T21:13:31.415Z,13.84
2023-03-08T21:15:57.844Z,13.83
2023-03-08T21:18:24.195Z,13.80
2023-03-08T21:20:50.785Z,13.77
2023-03-08T21:23:17.104Z,13.74
2023-03-08T21:25:43.500Z,13.73
2023-03-08T21:28:09.865Z,13.70
2023-03-08T21:30:38.623Z,13.67
2023-03-08T21:33:04.953Z,13.63
2023-03-08T21:35:31.351Z,13.61
2023-03-08T21:37:57.630Z,13.58
2023-03-08T21:40:23.970Z,13.55
2023-03-08T21:42:50.335Z,13.52
2023-03-08T21:45:16.677Z,13.48
2023-03-08T21:47:45.655Z,13.46
2023-03-08T21:50:12.048Z,13.43
2023-03-08T21:52:38.392Z,13.41
2023-03-08T21:55:04.746Z,13.37
2023-03-08T21:57:31.132Z,13.34
2023-03-08T21:59:57.462Z,13.32
2023-03-08T22:02:23.874Z,13.29
2023-03-08T22:04:50.217Z,13.25
2023-03-08T22:07:16.568Z,13.23
2023-03-08T22:09:42.947Z,13.20
2023-03-08T22:12:09.268Z,13.18
2023-03-08T22:14:35.629Z,13.15
2023-03-08T22:17:04.126Z,13.12
2023-03-08T22:19:30.481Z,13.08
2023-03-08T22:21:56.823Z,13.06
2023-03-08T22:24:23.179Z,13.04
2023-03-08T22:26:49.671Z,13.02
2023-03-08T22:29:16.041Z,12.97
2023-03-08T22:31:42.485Z,12.94
2023-03-08T22:34:08.756Z,12.93
2023-03-08T22:36:35.112Z,12.92
2023-03-08T22:39:01.534Z,12.89
2023-03-08T22:41:27.896Z,12.85
2023-03-08T22:43:54.211Z,12.84
2023-03-08T22:46:20.548Z,12.82
2023-03-08T22:48:46.870Z,12.82
2023-03-08T22:51:13.243Z,12.81
2023-03-08T22:53:39.561Z,12.79
2023-03-08T22:56:05.957Z,12.78
2023-03-08T22:58:32.276Z,12.77
2023-03-08T23:00:58.624Z,12.75
2023-03-08T23:03:25.047Z,12.74
2023-03-08T23:05:51.478Z,12.72
2023-03-08T23:08:17.839Z,12.70
2023-03-08T23:10:44.219Z,12.71
2023-03-08T23:13:14.344Z,12.69
2023-03-08T23:15:36.922Z,12.68
2023-03-08T23:18:03.251Z,12.66
2023-03-08T23:20:29.675Z,12.65
2023-03-08T23:22:55.974Z,12.63
2023-03-08T23:25:22.339Z,12.63
2023-03-08T23:27:48.691Z,12.62
2023-03-08T23:30:15.085Z,12.61
2023-03-08T23:32:41.459Z,12.59
2023-03-08T23:35:07.776Z,12.59
2023-03-08T23:37:34.143Z,12.57
2023-03-08T23:40:00.514Z,12.55
2023-03-08T23:42:26.873Z,12.55
2023-03-08T23:44:53.211Z,12.54
2023-03-08T23:47:19.568Z,12.53
2023-03-08T23:49:45.917Z,12.49
2023-03-08T23:52:12.282Z,12.48
2023-03-08T23:54:38.686Z,12.46
2023-03-08T23:57:05.044Z,12.44
2023-03-08T23:59:31.392Z,12.42
